createdAt,value
2023-05-17T05:01:12.177Z,500.00
2023-05-17T05:02:11.923Z,500.00
2023-05-17T05:03:12.020Z,500.00
2023-05-17T05:04:12.157Z,500.00
2023-05-17T05:05:12.139Z,500.00
2023-05-17T05:06:12.072Z,500.00
2023-05-17T05:07:12.072Z,400.00
2023-05-17T05:08:12.099Z,400.00
2023-05-17T05:09:12.145Z,400.00
2023-05-17T05:10:12.165Z,400.00
2023-05-17T05:11:12.203Z,400.00
2023-05-17T05:12:12.259Z,400.00
2023-05-17T05:13:12.308Z,400.00
2023-05-17T05:14:12.347Z,400.00
2023-05-17T05:15:12.439Z,400.00
2023-05-17T05:16:12.470Z,400.00
2023-05-17T05:17:20.653Z,400.00
2023-05-17T05:18:21.785Z,400.00
2023-05-17T05:19:12.703Z,400.00
2023-05-17T05:20:12.484Z,400.00
2023-05-17T05:21:13.184Z,400.00
2023-05-17T05:22:24.021Z,400.00
2023-05-17T05:23:12.668Z,400.00
2023-05-17T05:24:12.790Z,400.00
2023-05-17T05:25:12.821Z,400.00
2023-05-17T05:26:12.783Z,400.00
2023-05-17T05:27:12.810Z,400.00
2023-05-17T05:28:12.834Z,400.00
2023-05-17T05:29:12.885Z,400.00
2023-05-17T05:30:12.962Z,400.00
2023-05-17T05:31:12.972Z,400.00
2023-05-17T05:32:12.960Z,400.00
2023-05-17T05:33:13.258Z,400.00
2023-05-17T05:34:13.930Z,400.00
2023-05-17T05:35:13.114Z,400.00
2023-05-17T05:36:13.806Z,400.00
2023-05-17T05:37:13.768Z,400.00
2023-05-17T05:38:13.458Z,400.00
2023-05-17T05:39:13.292Z,443.00
2023-05-17T05:40:14.424Z,473.00
2023-05-17T05:41:14.870Z,500.00
2023-05-17T05:42:13.419Z,510.00
2023-05-17T05:43:13.417Z,502.00
2023-05-17T05:44:13.449Z,509.00
2023-05-17T05:45:13.524Z,508.00
2023-05-17T05:46:13.556Z,516.00
2023-05-17T05:47:13.610Z,497.00
2023-05-17T05:48:13.685Z,519.00
2023-05-17T05:49:13.775Z,507.00
2023-05-17T05:50:13.715Z,519.00
2023-05-17T05:51:13.685Z,537.00
2023-05-17T05:52:13.763Z,544.00
2023-05-17T05:53:19.300Z,542.00
2023-05-17T05:54:14.755Z,543.00
2023-05-17T05:55:13.778Z,544.00
2023-05-17T05:56:13.810Z,549.00
2023-05-17T05:57:13.793Z,550.00
2023-05-17T05:58:13.859Z,547.00
2023-05-17T05:59:13.716Z,555.00
2023-05-17T06:00:13.745Z,554.00
2023-05-17T06:01:13.725Z,557.00
2023-05-17T06:02:13.708Z,557.00
2023-05-17T06:03:13.697Z,556.00
2023-05-17T06:04:13.712Z,559.00
2023-05-17T06:05:13.845Z,571.00
2023-05-17T06:06:13.808Z,558.00
2023-05-17T06:07:13.712Z,546.00
2023-05-17T06:08:13.762Z,565.00
2023-05-17T06:09:13.838Z,572.00
2023-05-17T06:10:13.810Z,568.00
2023-05-17T06:11:13.819Z,574.00
2023-05-17T06:12:13.851Z,588.00
2023-05-17T06:13:13.923Z,579.00
2023-05-17T06:14:13.941Z,565.00
2023-05-17T06:15:14.764Z,565.00
2023-05-17T06:16:13.978Z,570.00
2023-05-17T06:17:14.001Z,569.00
2023-05-17T06:18:13.989Z,560.00
2023-05-17T06:19:14.023Z,555.00
2023-05-17T06:20:14.316Z,543.00
2023-05-17T06:21:14.019Z,546.00
2023-05-17T06:22:13.919Z,549.00
2023-05-17T06:23:13.889Z,561.00
2023-05-17T06:24:13.906Z,566.00
2023-05-17T06:25:13.901Z,555.00
2023-05-17T06:26:13.936Z,561.00
2023-05-17T06:27:13.871Z,539.00
2023-05-17T06:28:14.009Z,552.00
2023-05-17T06:29:13.827Z,535.00
2023-05-17T06:30:13.815Z,543.00
2023-05-17T06:31:13.875Z,547.00
2023-05-17T06:32:13.932Z,531.00
2023-05-17T06:33:13.930Z,532.00
2023-05-17T06:34:14.013Z,531.00
2023-05-17T06:35:14.793Z,523.00
2023-05-17T06:36:13.879Z,534.00
2023-05-17T06:37:13.962Z,543.00
2023-05-17T06:38:13.839Z,545.00
2023-05-17T06:39:13.883Z,552.00
2023-05-17T06:41:13.853Z,519.00
2023-05-17T06:42:13.807Z,533.00
2023-05-17T06:43:13.891Z,527.00
2023-05-17T06:44:13.808Z,528.00
2023-05-17T06:45:13.839Z,522.00
2023-05-17T06:46:13.821Z,518.00
2023-05-17T06:47:13.849Z,526.00
2023-05-17T06:48:14.023Z,531.00
2023-05-17T06:49:13.977Z,522.00
2023-05-17T06:50:14.895Z,539.00
2023-05-17T06:51:14.056Z,526.00
2023-05-17T06:52:13.926Z,519.00
2023-05-17T06:53:14.992Z,533.00
2023-05-17T06:54:14.012Z,531.00
2023-05-17T06:55:14.010Z,544.00
2023-05-17T06:56:14.237Z,544.00
2023-05-17T06:57:14.063Z,546.00
2023-05-17T06:58:14.218Z,536.00
2023-05-17T06:59:15.174Z,538.00
2023-05-17T07:00:14.167Z,543.00
2023-05-17T07:01:14.162Z,552.00
2023-05-17T07:02:14.168Z,551.00
2023-05-17T07:03:14.367Z,550.00
2023-05-17T07:04:14.552Z,529.00
2023-05-17T07:05:14.305Z,526.00
2023-05-17T07:06:14.320Z,515.00
2023-05-17T07:07:14.341Z,536.00
2023-05-17T07:08:14.350Z,559.00
2023-05-17T07:09:14.762Z,546.00
2023-05-17T07:10:14.427Z,542.00
2023-05-17T07:11:14.648Z,554.00
2023-05-17T07:12:14.466Z,549.00
2023-05-17T07:13:14.512Z,557.00
2023-05-17T07:14:14.855Z,543.00
2023-05-17T07:15:14.563Z,554.00
2023-05-17T07:16:14.767Z,555.00
2023-05-17T07:17:14.610Z,554.00
2023-05-17T07:18:14.772Z,553.00
2023-05-17T07:19:14.739Z,548.00
2023-05-17T07:20:14.779Z,546.00
2023-05-17T07:21:14.799Z,536.00
2023-05-17T07:22:14.774Z,530.00
2023-05-17T07:23:14.816Z,527.00
2023-05-17T07:24:14.914Z,533.00
2023-05-17T07:25:15.105Z,523.00
2023-05-17T07:26:14.882Z,521.00
2023-05-17T07:27:14.894Z,517.00
2023-05-17T07:28:14.992Z,537.00
2023-05-17T07:29:14.996Z,522.00
2023-05-17T07:30:15.070Z,511.00
2023-05-17T07:31:15.046Z,539.00
2023-05-17T07:32:15.096Z,529.00
2023-05-17T07:33:15.200Z,529.00
2023-05-17T07:34:15.289Z,515.00
2023-05-17T07:35:15.202Z,524.00
2023-05-17T07:36:15.254Z,504.00
2023-05-17T07:37:15.282Z,534.00
2023-05-17T07:38:15.284Z,520.00
2023-05-17T07:39:15.396Z,524.00
2023-05-17T07:40:15.362Z,512.00
2023-05-17T07:41:15.662Z,524.00
2023-05-17T07:42:15.445Z,520.00
2023-05-17T07:43:15.499Z,517.00
2023-05-17T07:44:15.541Z,521.00
2023-05-17T07:45:15.574Z,500.00
2023-05-17T07:46:15.589Z,506.00
2023-05-17T07:47:15.700Z,536.00
2023-05-17T07:48:16.474Z,528.00
2023-05-17T07:49:15.737Z,530.00
2023-05-17T07:50:15.697Z,539.00
2023-05-17T07:51:15.728Z,549.00
2023-05-17T07:52:15.769Z,562.00
2023-05-17T07:53:15.764Z,558.00
2023-05-17T07:54:15.820Z,557.00
2023-05-17T07:55:17.063Z,557.00
2023-05-17T07:56:15.857Z,562.00
2023-05-17T07:57:16.822Z,577.00
2023-05-17T07:58:16.094Z,569.00
2023-05-17T07:59:15.932Z,578.00
2023-05-17T08:00:15.949Z,583.00
2023-05-17T08:01:15.955Z,581.00
2023-05-17T08:02:15.965Z,592.00
2023-05-17T08:03:17.459Z,591.00
2023-05-17T08:04:16.040Z,589.00
2023-05-17T08:05:15.994Z,587.00
2023-05-17T08:06:16.178Z,600.00
2023-05-17T08:07:16.014Z,621.00
2023-05-17T08:08:16.027Z,644.00
2023-05-17T08:09:16.049Z,686.00
2023-05-17T08:10:16.084Z,705.00
2023-05-17T08:11:16.083Z,710.00
2023-05-17T08:12:16.074Z,655.00
2023-05-17T08:13:16.105Z,665.00
2023-05-17T08:14:16.173Z,665.00
2023-05-17T08:15:16.166Z,679.00
2023-05-17T08:16:16.164Z,692.00
2023-05-17T08:17:16.186Z,664.00
2023-05-17T08:18:16.263Z,656.00
2023-05-17T08:19:16.621Z,654.00
2023-05-17T08:20:16.266Z,641.00
2023-05-17T08:21:16.278Z,652.00
2023-05-17T08:22:16.392Z,648.00
2023-05-17T08:23:16.361Z,667.00
2023-05-17T08:24:16.406Z,639.00
2023-05-17T08:25:16.381Z,644.00
2023-05-17T08:26:16.465Z,660.00
2023-05-17T08:27:16.446Z,673.00
2023-05-17T08:28:16.549Z,667.00
2023-05-17T08:29:16.494Z,663.00
2023-05-17T08:30:27.866Z,656.00
2023-05-17T08:31:16.577Z,639.00
2023-05-17T08:32:16.571Z,649.00
2023-05-17T08:33:16.587Z,628.00
2023-05-17T08:34:16.637Z,648.00
2023-05-17T08:35:16.549Z,646.00
2023-05-17T08:36:16.526Z,663.00
2023-05-17T08:37:16.704Z,657.00
2023-05-17T08:38:18.052Z,663.00
2023-05-17T08:39:16.597Z,677.00
2023-05-17T08:40:16.502Z,698.00
2023-05-17T08:41:16.495Z,696.00
2023-05-17T08:42:16.480Z,711.00
2023-05-17T08:43:16.926Z,741.00
2023-05-17T08:44:16.496Z,756.00
2023-05-17T08:45:16.443Z,761.00
2023-05-17T08:46:16.462Z,787.00
2023-05-17T08:47:16.439Z,816.00
2023-05-17T08:48:16.530Z,842.00
2023-05-17T08:49:17.401Z,859.00
2023-05-17T08:50:16.493Z,870.00
2023-05-17T08:51:16.382Z,896.00
2023-05-17T08:52:16.389Z,901.00
2023-05-17T08:53:16.450Z,931.00
2023-05-17T08:54:16.369Z,950.00
2023-05-17T08:55:16.617Z,956.00
2023-05-17T08:56:16.382Z,994.00
2023-05-17T08:57:16.335Z,993.00
2023-05-17T08:58:16.362Z,980.00
2023-05-17T08:59:16.387Z,1018.00
2023-05-17T09:00:16.414Z,1061.00
2023-05-17T09:01:16.346Z,1054.00
2023-05-17T09:02:16.385Z,1077.00
2023-05-17T09:03:16.379Z,1090.00
2023-05-17T09:04:16.413Z,1069.00
2023-05-17T09:05:16.377Z,1077.00
2023-05-17T09:06:16.340Z,1096.00
2023-05-17T09:07:17.400Z,1105.00
2023-05-17T09:08:16.272Z,1120.00
2023-05-17T09:09:16.272Z,1127.00
2023-05-17T09:10:16.262Z,1129.00
2023-05-17T09:11:16.312Z,1141.00
2023-05-17T09:12:16.275Z,1145.00
2023-05-17T09:13:16.252Z,1144.00
2023-05-17T09:14:16.264Z,1156.00
2023-05-17T09:15:16.335Z,1167.00
2023-05-17T09:16:16.381Z,1172.00
2023-05-17T09:17:16.422Z,1195.00
2023-05-17T09:18:19.265Z,1183.00
2023-05-17T09:19:16.627Z,1193.00
2023-05-17T09:20:16.599Z,1194.00
2023-05-17T09:21:16.413Z,1214.00
2023-05-17T09:22:16.447Z,1215.00
2023-05-17T09:23:16.436Z,1212.00
2023-05-17T09:24:16.370Z,1232.00
2023-05-17T09:25:16.363Z,1237.00
2023-05-17T09:26:16.396Z,1228.00
2023-05-17T09:27:16.355Z,1242.00
2023-05-17T09:28:16.421Z,1251.00
2023-05-17T09:29:16.449Z,1253.00
2023-05-17T09:30:16.441Z,1253.00
2023-05-17T09:31:16.379Z,1264.00
2023-05-17T09:32:16.368Z,1271.00
2023-05-17T09:33:18.587Z,1271.00
2023-05-17T09:34:16.327Z,1319.00
2023-05-17T09:35:16.376Z,1307.00
2023-05-17T09:36:16.349Z,1286.00
2023-05-17T09:37:16.328Z,1298.00
2023-05-17T09:38:16.280Z,1312.00
2023-05-17T09:39:16.330Z,1289.00
2023-05-17T09:40:16.292Z,1293.00
2023-05-17T09:41:16.290Z,1292.00
2023-05-17T09:42:16.292Z,1279.00
2023-05-17T09:43:16.252Z,1265.00
2023-05-17T09:44:16.256Z,1270.00
2023-05-17T09:45:16.233Z,1279.00
2023-05-17T09:46:16.257Z,1262.00
2023-05-17T09:47:16.231Z,1289.00
2023-05-17T09:48:16.364Z,1285.00
2023-05-17T09:49:16.311Z,1284.00
2023-05-17T09:50:16.220Z,1296.00
2023-05-17T09:51:16.227Z,1293.00
2023-05-17T09:52:16.205Z,1286.00
2023-05-17T09:53:16.211Z,1322.00
2023-05-17T09:54:16.197Z,1322.00
2023-05-17T09:55:16.175Z,1315.00
2023-05-17T09:56:16.206Z,1293.00
2023-05-17T09:57:16.177Z,1345.00
2023-05-17T09:58:16.155Z,1139.00
2023-05-17T09:59:16.386Z,647.00
2023-05-17T10:00:16.169Z,584.00
2023-05-17T10:01:16.152Z,530.00
2023-05-17T10:02:16.144Z,517.00
2023-05-17T10:03:16.245Z,522.00
2023-05-17T10:04:16.151Z,550.00
2023-05-17T10:05:16.222Z,585.00
2023-05-17T10:06:27.775Z,605.00
2023-05-17T10:07:17.130Z,607.00
2023-05-17T10:08:16.126Z,614.00
2023-05-17T10:09:16.126Z,626.00
2023-05-17T10:10:16.077Z,643.00
2023-05-17T10:11:16.066Z,679.00
2023-05-17T10:12:16.112Z,686.00
2023-05-17T10:13:16.073Z,705.00
2023-05-17T10:14:16.062Z,734.00
2023-05-17T10:15:16.156Z,723.00
2023-05-17T10:16:16.050Z,738.00
2023-05-17T10:17:16.058Z,746.00
2023-05-17T10:18:16.206Z,786.00
2023-05-17T10:19:16.172Z,810.00
2023-05-17T10:20:16.168Z,815.00
2023-05-17T10:21:16.240Z,843.00
2023-05-17T10:22:23.368Z,857.00
2023-05-17T10:23:17.057Z,858.00
2023-05-17T10:24:15.992Z,857.00
2023-05-17T10:25:16.009Z,830.00
2023-05-17T10:26:15.985Z,697.00
2023-05-17T10:27:15.968Z,720.00
2023-05-17T10:28:15.994Z,677.00
2023-05-17T10:29:15.945Z,684.00
2023-05-17T10:30:15.941Z,710.00
2023-05-17T10:31:15.999Z,669.00
2023-05-17T10:32:15.943Z,658.00
2023-05-17T10:33:16.274Z,647.00
2023-05-17T10:34:16.052Z,636.00
2023-05-17T10:35:15.932Z,638.00
2023-05-17T10:36:15.910Z,638.00
2023-05-17T10:37:15.940Z,637.00
2023-05-17T10:38:15.941Z,640.00
2023-05-17T10:39:15.902Z,638.00
2023-05-17T10:40:15.888Z,635.00
2023-05-17T10:41:15.900Z,626.00
2023-05-17T10:42:15.916Z,623.00
2023-05-17T10:43:15.920Z,641.00
2023-05-17T10:44:15.930Z,643.00
2023-05-17T10:45:15.865Z,640.00
2023-05-17T10:46:15.851Z,647.00
2023-05-17T10:47:15.872Z,650.00
2023-05-17T10:48:15.929Z,675.00
2023-05-17T10:49:16.962Z,673.00
2023-05-17T10:50:15.944Z,700.00
2023-05-17T10:51:15.893Z,691.00
2023-05-17T10:52:15.884Z,708.00
2023-05-17T10:53:15.925Z,710.00
2023-05-17T10:54:15.881Z,717.00
2023-05-17T10:55:15.918Z,701.00
2023-05-17T10:56:15.936Z,708.00
2023-05-17T10:57:15.927Z,720.00
2023-05-17T10:58:16.059Z,722.00
2023-05-17T10:59:16.125Z,723.00
2023-05-17T11:00:15.956Z,723.00
2023-05-17T11:01:15.938Z,724.00
2023-05-17T11:02:16.004Z,740.00
2023-05-17T11:03:16.044Z,732.00
2023-05-17T11:04:16.038Z,737.00
2023-05-17T11:05:16.133Z,753.00
2023-05-17T11:06:23.973Z,746.00
2023-05-17T11:07:17.012Z,747.00
2023-05-17T11:08:15.977Z,750.00
2023-05-17T11:09:15.977Z,755.00
2023-05-17T11:10:16.070Z,765.00
2023-05-17T11:11:16.015Z,774.00
2023-05-17T11:12:16.029Z,674.00
2023-05-17T11:13:15.935Z,581.00
2023-05-17T11:14:15.950Z,495.00
2023-05-17T11:15:15.946Z,499.00
2023-05-17T11:16:17.862Z,500.00
2023-05-17T11:17:15.906Z,506.00
2023-05-17T11:18:29.452Z,497.00
2023-05-17T11:19:16.930Z,498.00
2023-05-17T11:20:17.179Z,501.00
2023-05-17T11:21:15.875Z,508.00
2023-05-17T11:22:15.859Z,526.00
2023-05-17T11:23:15.870Z,552.00
2023-05-17T11:24:15.892Z,561.00
2023-05-17T11:25:15.850Z,572.00
2023-05-17T11:26:16.361Z,557.00
2023-05-17T11:27:15.872Z,581.00
2023-05-17T11:28:15.854Z,591.00
2023-05-17T11:29:15.900Z,608.00
2023-05-17T11:30:15.947Z,608.00
2023-05-17T11:31:15.979Z,592.00
2023-05-17T11:32:16.036Z,612.00
2023-05-17T11:33:25.338Z,589.00
2023-05-17T11:34:17.077Z,589.00
2023-05-17T11:35:16.041Z,589.00
2023-05-17T11:36:16.055Z,590.00
2023-05-17T11:37:16.044Z,589.00
2023-05-17T11:38:17.930Z,593.00
2023-05-17T11:39:16.009Z,598.00
2023-05-17T11:40:16.148Z,613.00
2023-05-17T11:42:16.011Z,622.00
2023-05-17T11:43:15.998Z,622.00
2023-05-17T11:44:16.066Z,627.00
2023-05-17T11:45:15.990Z,644.00
2023-05-17T11:46:15.977Z,659.00
2023-05-17T11:47:15.971Z,662.00
2023-05-17T11:48:16.044Z,689.00
2023-05-17T11:49:27.037Z,713.00
2023-05-17T11:50:15.955Z,717.00
2023-05-17T11:51:16.214Z,727.00
2023-05-17T11:52:15.931Z,746.00
2023-05-17T11:53:15.965Z,780.00
2023-05-17T11:54:15.954Z,839.00
2023-05-17T11:55:15.946Z,858.00
2023-05-17T11:56:15.939Z,878.00
2023-05-17T11:57:15.959Z,886.00
2023-05-17T11:58:15.914Z,895.00
2023-05-17T11:59:15.905Z,878.00
2023-05-17T12:00:15.922Z,832.00
2023-05-17T12:01:15.873Z,867.00
2023-05-17T12:02:15.935Z,770.00
2023-05-17T12:03:15.988Z,745.00
2023-05-17T12:04:16.023Z,805.00
2023-05-17T12:05:16.135Z,702.00
2023-05-17T12:06:16.159Z,661.00
2023-05-17T12:07:16.101Z,662.00
2023-05-17T12:08:16.078Z,667.00
2023-05-17T12:09:16.122Z,716.00
2023-05-17T12:10:16.098Z,711.00
2023-05-17T12:11:16.132Z,658.00
2023-05-17T12:12:16.103Z,645.00
2023-05-17T12:13:16.119Z,649.00
2023-05-17T12:14:16.164Z,655.00
2023-05-17T12:15:16.167Z,709.00
2023-05-17T12:16:18.283Z,710.00
2023-05-17T12:17:16.185Z,713.00
2023-05-17T12:18:16.339Z,710.00
2023-05-17T12:19:16.208Z,714.00
2023-05-17T12:20:16.263Z,724.00
2023-05-17T12:21:16.222Z,633.00
2023-05-17T12:22:16.290Z,665.00
2023-05-17T12:23:16.308Z,648.00
2023-05-17T12:24:16.539Z,630.00
2023-05-17T12:25:16.314Z,625.00
2023-05-17T12:26:16.363Z,638.00
2023-05-17T12:27:16.350Z,652.00
2023-05-17T12:28:16.339Z,656.00
2023-05-17T12:29:16.359Z,668.00
2023-05-17T12:30:16.434Z,665.00
2023-05-17T12:31:16.408Z,688.00
2023-05-17T12:32:16.569Z,709.00
2023-05-17T12:33:16.569Z,692.00
2023-05-17T12:34:16.528Z,699.00
2023-05-17T12:35:16.467Z,675.00
2023-05-17T12:36:16.530Z,681.00
2023-05-17T12:37:16.513Z,653.00
2023-05-17T12:38:16.514Z,668.00
2023-05-17T12:39:16.551Z,685.00
2023-05-17T12:40:16.582Z,706.00
2023-05-17T12:41:16.650Z,701.00
2023-05-17T12:42:16.700Z,687.00
2023-05-17T12:43:16.716Z,665.00
2023-05-17T12:44:16.967Z,680.00
2023-05-17T12:45:16.759Z,634.00
2023-05-17T12:46:16.843Z,656.00
2023-05-17T12:47:16.809Z,629.00
2023-05-17T12:48:16.915Z,617.00
2023-05-17T12:49:16.908Z,622.00
2023-05-17T12:50:16.851Z,614.00
2023-05-17T12:51:16.831Z,623.00
2023-05-17T12:52:16.872Z,602.00
2023-05-17T12:53:16.911Z,594.00
2023-05-17T12:54:16.918Z,589.00
2023-05-17T12:55:16.909Z,591.00
2023-05-17T12:56:16.935Z,582.00
2023-05-17T12:57:16.935Z,587.00
2023-05-17T12:58:16.981Z,580.00
2023-05-17T12:59:16.976Z,563.00
2023-05-17T13:00:16.970Z,549.00
2023-05-17T13:01:17.031Z,550.00
2023-05-17T13:02:16.998Z,538.00
2023-05-17T13:03:17.068Z,542.00
2023-05-17T13:04:18.996Z,542.00
2023-05-17T13:05:16.999Z,538.00
2023-05-17T13:06:17.001Z,545.00
2023-05-17T13:07:17.030Z,530.00
2023-05-17T13:08:16.995Z,491.00
2023-05-17T13:09:17.040Z,494.00
2023-05-17T13:10:17.064Z,493.00
2023-05-17T13:11:17.114Z,528.00
2023-05-17T13:12:17.125Z,508.00
2023-05-17T13:13:17.186Z,515.00
2023-05-17T13:14:17.199Z,529.00
2023-05-17T13:15:17.300Z,540.00
2023-05-17T13:16:17.363Z,530.00
2023-05-17T13:17:17.375Z,504.00
2023-05-17T13:18:17.537Z,496.00
2023-05-17T13:19:17.521Z,503.00
2023-05-17T13:20:17.591Z,499.00
2023-05-17T13:21:17.440Z,502.00
2023-05-17T13:22:17.549Z,501.00
2023-05-17T13:23:17.539Z,517.00
2023-05-17T13:24:17.525Z,524.00
2023-05-17T13:25:17.523Z,532.00
2023-05-17T13:26:17.626Z,507.00
2023-05-17T13:27:18.477Z,511.00
2023-05-17T13:28:17.655Z,523.00
2023-05-17T13:29:20.719Z,525.00
2023-05-17T13:30:18.657Z,526.00
2023-05-17T13:31:17.647Z,524.00
2023-05-17T13:32:17.623Z,498.00
2023-05-17T13:33:17.835Z,509.00
2023-05-17T13:34:17.614Z,514.00
2023-05-17T13:35:17.629Z,509.00
2023-05-17T13:36:17.622Z,537.00
2023-05-17T13:37:17.612Z,532.00
2023-05-17T13:38:17.578Z,504.00
2023-05-17T13:39:17.658Z,533.00
2023-05-17T13:40:17.631Z,521.00
2023-05-17T13:41:17.573Z,542.00
2023-05-17T13:42:17.641Z,556.00
2023-05-17T13:43:17.607Z,600.00
2023-05-17T13:44:17.645Z,590.00
2023-05-17T13:45:17.723Z,586.00
2023-05-17T13:46:17.696Z,640.00
2023-05-17T13:47:17.696Z,639.00
2023-05-17T13:48:17.731Z,646.00
2023-05-17T13:49:17.760Z,653.00
2023-05-17T13:50:17.744Z,717.00
2023-05-17T13:51:17.799Z,764.00
2023-05-17T13:52:17.868Z,792.00
2023-05-17T13:53:17.949Z,829.00
2023-05-17T13:54:18.493Z,812.00
2023-05-17T13:55:17.985Z,855.00
2023-05-17T13:56:18.013Z,890.00
2023-05-17T13:57:18.127Z,907.00
2023-05-17T13:58:18.118Z,899.00
2023-05-17T13:59:18.136Z,891.00
2023-05-17T14:00:18.166Z,918.00
2023-05-17T14:01:18.234Z,918.00
2023-05-17T14:02:18.277Z,922.00
2023-05-17T14:03:18.391Z,981.00
2023-05-17T14:04:18.348Z,1011.00
2023-05-17T14:05:18.402Z,991.00
2023-05-17T14:06:18.461Z,956.00
2023-05-17T14:07:18.439Z,934.00
2023-05-17T14:08:18.500Z,953.00
2023-05-17T14:09:18.561Z,1011.00
2023-05-17T14:10:18.550Z,1043.00
2023-05-17T14:11:18.666Z,1042.00
2023-05-17T14:12:18.640Z,1057.00
2023-05-17T14:13:18.667Z,1066.00
2023-05-17T14:14:18.767Z,1087.00
2023-05-17T14:15:18.739Z,998.00
2023-05-17T14:16:18.774Z,1025.00
2023-05-17T14:17:18.793Z,1087.00
2023-05-17T14:18:18.979Z,1098.00
2023-05-17T14:19:18.933Z,1129.00
2023-05-17T14:20:18.944Z,1152.00
2023-05-17T14:21:18.939Z,1179.00
2023-05-17T14:22:18.965Z,1170.00
2023-05-17T14:23:18.980Z,1194.00
2023-05-17T14:24:19.058Z,1177.00
2023-05-17T14:25:19.057Z,1195.00
2023-05-17T14:26:19.093Z,1197.00
2023-05-17T14:27:19.121Z,1191.00
2023-05-17T14:28:19.082Z,1199.00
2023-05-17T14:29:19.138Z,1206.00
2023-05-17T14:30:19.159Z,1192.00
2023-05-17T14:31:19.237Z,1213.00
2023-05-17T14:32:19.205Z,1218.00
2023-05-17T14:33:19.411Z,1222.00
2023-05-17T14:34:19.364Z,1224.00
2023-05-17T14:35:19.320Z,1232.00
2023-05-17T14:36:19.357Z,1226.00
2023-05-17T14:37:19.367Z,1247.00
2023-05-17T14:38:19.389Z,1246.00
2023-05-17T14:39:19.421Z,1247.00
2023-05-17T14:40:19.418Z,1251.00
2023-05-17T14:41:19.454Z,1242.00
2023-05-17T14:42:19.492Z,1247.00
2023-05-17T14:43:19.486Z,1278.00
2023-05-17T14:44:19.494Z,1271.00
2023-05-17T14:45:19.535Z,1305.00
2023-05-17T14:46:19.584Z,1300.00
2023-05-17T14:47:19.614Z,1319.00
2023-05-17T14:48:19.711Z,1291.00
2023-05-17T14:49:19.735Z,1345.00
2023-05-17T14:50:19.648Z,1407.00
2023-05-17T14:51:19.708Z,1452.00
2023-05-17T14:52:19.694Z,1488.00
2023-05-17T14:53:19.712Z,1557.00
2023-05-17T14:54:19.708Z,1535.00
2023-05-17T14:55:19.782Z,1638.00
2023-05-17T14:56:19.771Z,1722.00
2023-05-17T14:57:19.790Z,1639.00
2023-05-17T14:58:19.786Z,1777.00
2023-05-17T14:59:19.866Z,1850.00
2023-05-17T15:00:19.878Z,1831.00
2023-05-17T15:01:19.893Z,1840.00
2023-05-17T15:02:19.902Z,1787.00
2023-05-17T15:03:22.403Z,1782.00
2023-05-17T15:04:20.298Z,1858.00
2023-05-17T15:05:20.277Z,1881.00
2023-05-17T15:06:20.224Z,1820.00
2023-05-17T15:07:20.260Z,1805.00
2023-05-17T15:08:20.271Z,1776.00
2023-05-17T15:09:20.294Z,1776.00
2023-05-17T15:10:20.288Z,1739.00
2023-05-17T15:11:20.337Z,1772.00
2023-05-17T15:12:20.392Z,1774.00
2023-05-17T15:13:20.362Z,1778.00
2023-05-17T15:14:20.396Z,1787.00
2023-05-17T15:15:20.485Z,1766.00
2023-05-17T15:16:20.557Z,1758.00
2023-05-17T15:17:20.493Z,1749.00
2023-05-17T15:18:20.561Z,1751.00
2023-05-17T15:19:20.581Z,1770.00
2023-05-17T15:20:20.701Z,1763.00
2023-05-17T15:21:20.593Z,1769.00
2023-05-17T15:22:20.661Z,1780.00
2023-05-17T15:23:20.687Z,1758.00
2023-05-17T15:24:20.685Z,1768.00
2023-05-17T15:25:20.752Z,1774.00
2023-05-17T15:26:20.869Z,1765.00
2023-05-17T15:27:20.787Z,1774.00
2023-05-17T15:28:20.802Z,1773.00
2023-05-17T15:29:20.865Z,1773.00
2023-05-17T15:30:20.873Z,1754.00
2023-05-17T15:31:20.912Z,1770.00
2023-05-17T15:32:20.979Z,1760.00
2023-05-17T15:33:21.049Z,1755.00
2023-05-17T15:34:21.020Z,1764.00
2023-05-17T15:35:20.991Z,1766.00
2023-05-17T15:36:21.025Z,1762.00
2023-05-17T15:37:21.048Z,1744.00
2023-05-17T15:38:21.151Z,1735.00
2023-05-17T15:39:21.115Z,1739.00
2023-05-17T15:40:21.155Z,1740.00
2023-05-17T15:41:21.165Z,1737.00
2023-05-17T15:42:21.189Z,1737.00
2023-05-17T15:43:21.250Z,1728.00
2023-05-17T15:44:21.250Z,1720.00
2023-05-17T15:45:21.322Z,1714.00
2023-05-17T15:46:21.406Z,1711.00
2023-05-17T15:47:23.921Z,1714.00
2023-05-17T15:48:22.418Z,1715.00
2023-05-17T15:49:21.355Z,1715.00
2023-05-17T15:50:21.328Z,1689.00
2023-05-17T15:51:21.319Z,1700.00
2023-05-17T15:52:21.314Z,1697.00
2023-05-17T15:53:21.327Z,1672.00
2023-05-17T15:54:21.291Z,1691.00
2023-05-17T15:55:21.302Z,1691.00
2023-05-17T15:56:21.284Z,1687.00
2023-05-17T15:57:21.338Z,1661.00
2023-05-17T15:58:21.281Z,1682.00
2023-05-17T15:59:21.274Z,1654.00
2023-05-17T16:00:21.286Z,1645.00
2023-05-17T16:01:21.241Z,1649.00
2023-05-17T16:02:21.246Z,1662.00
2023-05-17T16:03:21.303Z,1652.00
2023-05-17T16:04:21.297Z,1656.00
2023-05-17T16:05:21.281Z,1641.00
2023-05-17T16:06:21.424Z,1649.00
2023-05-17T16:07:21.375Z,1649.00
2023-05-17T16:08:21.390Z,1629.00
2023-05-17T16:09:21.408Z,1631.00
2023-05-17T16:10:21.472Z,1637.00
2023-05-17T16:11:21.455Z,1632.00
2023-05-17T16:12:21.498Z,1608.00
2023-05-17T16:13:21.533Z,1623.00
2023-05-17T16:14:21.578Z,1642.00
2023-05-17T16:15:21.568Z,1623.00
2023-05-17T16:16:21.627Z,1627.00
2023-05-17T16:17:21.709Z,1602.00
2023-05-17T16:18:21.799Z,1619.00
2023-05-17T16:19:21.733Z,1597.00
2023-05-17T16:20:21.723Z,1595.00
2023-05-17T16:21:21.774Z,1595.00
2023-05-17T16:22:21.798Z,1607.00
2023-05-17T16:23:21.837Z,1595.00
2023-05-17T16:24:21.876Z,1599.00
2023-05-17T16:25:21.907Z,1594.00
2023-05-17T16:26:22.028Z,1596.00
2023-05-17T16:27:22.025Z,1582.00
2023-05-17T16:28:21.965Z,1578.00
2023-05-17T16:29:22.028Z,1576.00
2023-05-17T16:30:22.082Z,1571.00
2023-05-17T16:31:22.080Z,1576.00
2023-05-17T16:32:22.198Z,1571.00
2023-05-17T16:33:22.239Z,1565.00
2023-05-17T16:34:22.202Z,1570.00
2023-05-17T16:35:22.348Z,1558.00
2023-05-17T16:36:22.238Z,1559.00
2023-05-17T16:37:22.303Z,1575.00
2023-05-17T16:38:22.274Z,1560.00
2023-05-17T16:39:22.286Z,1561.00
2023-05-17T16:40:22.341Z,1541.00
2023-05-17T16:41:22.344Z,1542.00
2023-05-17T16:42:22.436Z,1565.00
2023-05-17T16:43:22.428Z,1563.00
2023-05-17T16:44:22.441Z,1558.00
2023-05-17T16:45:22.524Z,1556.00
2023-05-17T16:46:22.583Z,1516.00
2023-05-17T16:47:22.583Z,1550.00
2023-05-17T16:48:22.586Z,1542.00
2023-05-17T16:49:22.622Z,1525.00
2023-05-17T16:50:22.650Z,1533.00
2023-05-17T16:51:22.700Z,1518.00
2023-05-17T16:52:22.703Z,1530.00
2023-05-17T16:53:22.728Z,1518.00
2023-05-17T16:54:22.769Z,1521.00
2023-05-17T16:55:22.801Z,1502.00
2023-05-17T16:56:22.849Z,1521.00
2023-05-17T16:57:22.840Z,1507.00
2023-05-17T16:58:22.882Z,1504.00
2023-05-17T16:59:22.912Z,1499.00
2023-05-17T17:00:22.901Z,1502.00
